Flight Track Log - Related Links

Times and Time Zones

All times are in EDT time to prevent confusion due to time zone crossing. See the SWA542 flight status page for this flight to view local times or setup timezone preferences in your user account.

Time Position Orientation Groundspeed Altitude Reporting Facility
EDT Latitude Longitude Course Direction KTS MPH feet Rate Location/Type
Sun 06:31:07 PM 36.0753 -115.1739 245° Southwest 166 191 3,500  Level Los Angeles Center
Sun 06:32:39 PM 36.0381 -115.2711 245° Southwest 263 303 5,700 1,762 Climbing Los Angeles Center
Sun 06:33:13 PM 36.0097 -115.2817 197° South 254 292 7,200 3,273 Climbing Los Angeles Center
Sun 06:33:34 PM 35.9750 -115.2997 203° Southwest 275 316 8,700 3,613 Climbing Los Angeles Center
Sun 06:34:46 PM 35.9425 -115.4086 250° West 288 331 12,800 2,913 Climbing Los Angeles Center
Sun 06:35:17 PM 35.9383 -115.4592 264° West 291 335 13,700 2,000 Climbing Los Angeles Center
Sun 06:36:19 PM 35.9286 -115.5775 264° West 344 396 15,900 2,516 Climbing Los Angeles Center
Sun 06:37:21 PM 35.9167 -115.7133 264° West 371 427 18,900 2,758 Climbing Los Angeles Center
Sun 06:38:23 PM 35.9067 -115.8433 265° West 380 437 21,600 2,419 Climbing Los Angeles Center
Sun 06:39:25 PM 35.9131 -115.9864 273° West 392 451 23,900 2,016 Climbing Los Angeles Center
Sun 06:40:28 PM 35.9850 -116.0717 316° Northwest 397 457 25,800 1,872 Climbing Los Angeles Center
Sun 06:41:30 PM 36.0697 -116.1714 316° Northwest 409 471 27,800 2,032 Climbing Los Angeles Center
Sun 06:42:32 PM 36.1703 -116.2858 317° Northwest 415 478 30,000 2,032 Climbing Los Angeles Center
Sun 06:43:34 PM 36.2550 -116.3836 317° Northwest 417 480 32,000 1,839 Climbing Los Angeles Center
Sun 06:44:36 PM 36.3383 -116.4811 317° Northwest 414 476 33,800 1,597 Climbing Los Angeles Center
Sun 06:45:38 PM 36.4206 -116.5772 317° Northwest 410 472 35,300 1,355 Climbing Los Angeles Center
Sun 06:46:40 PM 36.5031 -116.6722 317° Northwest 408 470 36,600 1,306 Climbing Los Angeles Center
Sun 06:47:42 PM 36.5908 -116.7697 318° Northwest 406 467 38,000 677 Climbing Los Angeles Center
Sun 06:48:44 PM 36.6886 -116.8394 330° Northwest 404 465 38,000  Level Los Angeles Center
Sun 06:49:46 PM 36.8036 -116.9267 329° Northwest 403 464 38,000  Level Los Angeles Center
Sun 06:50:48 PM 36.8981 -117.0014 328° Northwest 401 461 38,000  Level Los Angeles Center
Sun 06:51:50 PM 36.9933 -117.0722 329° Northwest 399 459 38,000  Level Los Angeles Center
Sun 06:52:53 PM 37.0875 -117.1478 327° Northwest 400 460 38,000  Level Oakland Center
Sun 06:53:55 PM 37.1822 -117.2214 328° Northwest 399 459 38,000  Level Oakland Center
Sun 06:54:56 PM 37.2853 -117.2742 338° Northwest 398 458 38,000  Level Oakland Center
Sun 06:55:57 PM 37.3861 -117.3297 336° Northwest 394 453 38,000  Level Oakland Center
Sun 06:56:59 PM 37.5092 -117.3964 337° Northwest 399 459 38,000  Level Oakland Center
Sun 06:58:00 PM 37.6128 -117.4525 337° Northwest 402 463 38,000  Level Oakland Center
Sun 06:59:01 PM 37.7167 -117.5103 336° Northwest 405 466 38,000  Level Oakland Center
Sun 07:00:03 PM 37.8189 -117.5669 336° Northwest 401 461 38,000  Level Oakland Center
Sun 07:01:04 PM 37.9225 -117.6239 337° Northwest 402 463 38,000  Level Oakland Center
Sun 07:02:05 PM 38.0253 -117.6819 336° Northwest 400 460 38,000  Level Oakland Center
Sun 07:03:07 PM 38.1278 -117.7389 336° Northwest 398 458 38,000  Level Oakland Center
Sun 07:04:08 PM 38.2294 -117.7964 336° Northwest 396 456 38,000  Level Oakland Center
Sun 07:05:44 PM 38.3922 -117.8869 336° Northwest 397 457 38,000  Level Salt Lake Center
Sun 07:06:11 PM 38.4336 -117.9108 336° Northwest 397 457 38,000  Level Oakland Center
Sun 07:07:12 PM 38.5356 -117.9692 336° Northwest 399 459 38,000  Level Oakland Center
Sun 07:08:14 PM 38.6522 -118.0336 337° Northwest 400 460 38,000  Level Oakland Center
Sun 07:09:15 PM 38.7533 -118.0928 335° Northwest 399 459 38,000  Level Oakland Center
Sun 07:10:16 PM 38.8542 -118.1500 336° Northwest 398 458 38,000  Level Oakland Center
Sun 07:11:18 PM 38.9544 -118.2067 336° Northwest 395 455 38,000  Level Oakland Center
Sun 07:12:19 PM 39.0522 -118.2644 335° Northwest 389 448 38,000 -439 Level Oakland Center
Sun 07:13:21 PM 39.1503 -118.3192 337° Northwest 385 443 37,100 -927 Descending Oakland Center
Sun 07:14:22 PM 39.2467 -118.3758 336° Northwest 383 441 36,100 -537 Descending Oakland Center
Sun 07:15:24 PM 39.3528 -118.4369 336° Northwest 384 442 36,000 -49 Descending Oakland Center
Sun 07:16:25 PM 39.4514 -118.4944 336° Northwest 387 445 36,000  Level Oakland Center
Sun 07:17:26 PM 39.5564 -118.5572 335° Northwest 389 448 36,000  Level Oakland Center
Sun 07:18:28 PM 39.6539 -118.6147 336° Northwest 389 448 36,000  Level Oakland Center
Sun 07:19:29 PM 39.7528 -118.6722 336° Northwest 392 451 36,000  Level Oakland Center
Sun 07:20:30 PM 39.8511 -118.7300 336° Northwest 390 449 36,000  Level Oakland Center
Sun 07:21:32 PM 39.9492 -118.7894 335° Northwest 389 448 36,000  Level Oakland Center
Sun 07:22:33 PM 40.0675 -118.8600 335° Northwest 390 449 36,000  Level Oakland Center
Sun 07:23:35 PM 40.1639 -118.9178 335° Northwest 383 441 36,000  Level Oakland Center
Sun 07:24:36 PM 40.2611 -118.9753 336° Northwest 384 442 36,000  Level Oakland Center
Sun 07:25:37 PM 40.3558 -119.0325 335° Northwest 378 435 36,000  Level Oakland Center
Sun 07:26:39 PM 40.4506 -119.0903 335° Northwest 377 434 36,000 -488 Level Oakland Center
Sun 07:27:40 PM 40.5444 -119.1458 336° Northwest 371 427 35,000 -816 Descending Oakland Center
Sun 07:29:06 PM 40.6747 -119.2267 335° Northwest 371 427 34,000 -405 Descending Oakland Center
Sun 07:30:08 PM 40.7681 -119.2833 335° Northwest 371 427 34,000  Level Oakland Center
Sun 07:31:09 PM 40.8681 -119.3439 335° Northwest 370 426 34,000  Level Oakland Center
Sun 07:32:11 PM 40.9731 -119.4075 335° Northwest 370 426 34,000  Level Oakland Center
Sun 07:33:12 PM 41.0642 -119.4628 335° Northwest 374 430 34,000  Level Oakland Center
Sun 07:34:14 PM 41.1578 -119.5233 334° Northwest 371 427 34,000  Level Oakland Center
Sun 07:34:42 PM 41.1953 -119.5456 336° Northwest 370 426 34,000  Level Seattle Center
Sun 07:35:42 PM 41.2908 -119.6028 336° Northwest 375 432 34,000  Level Seattle Center
Sun 07:36:16 PM 41.3453 -119.6389 334° Northwest 370 426 34,000  Level Oakland Center
Sun 07:36:43 PM 41.3828 -119.6617 336° Northwest 370 426 34,000  Level Seattle Center
Sun 07:37:44 PM 41.5000 -119.7286 337° Northwest 380 437 34,000  Level Seattle Center
Sun 07:38:45 PM 41.5892 -119.7892 333° Northwest 368 423 34,000  Level Seattle Center
Sun 07:39:46 PM 41.6817 -119.8472 335° Northwest 365 420 34,000  Level Seattle Center
Sun 07:40:22 PM 41.7361 -119.8833 334° Northwest 369 425 34,000  Level Oakland Center
Sun 07:40:47 PM 41.7753 -119.9053 337° Northwest 368 423 34,000  Level Seattle Center
Sun 07:41:48 PM 41.8675 -119.9639 335° Northwest 369 425 34,000  Level Seattle Center
Sun 07:42:49 PM 41.9578 -120.0203 335° Northwest 364 419 34,000  Level Seattle Center
Sun 07:43:50 PM 42.0511 -120.0781 335° Northwest 368 423 34,000  Level Seattle Center
Sun 07:44:51 PM 42.1419 -120.1372 334° Northwest 364 419 34,000  Level Seattle Center
Sun 07:45:52 PM 42.2328 -120.1953 335° Northwest 363 418 34,000  Level Seattle Center
Sun 07:46:52 PM 42.3253 -120.2531 335° Northwest 366 421 34,000  Level Seattle Center
Sun 07:47:53 PM 42.4158 -120.3136 334° Northwest 365 420 34,000  Level Seattle Center
Sun 07:48:54 PM 42.5064 -120.3700 335° Northwest 361 415 34,000  Level Seattle Center
Sun 07:49:55 PM 42.5961 -120.4272 335° Northwest 358 412 34,000  Level Seattle Center
Sun 07:50:56 PM 42.6853 -120.4850 335° Northwest 357 411 34,000  Level Seattle Center
Sun 07:51:56 PM 42.7931 -120.5572 334° Northwest 359 413 34,000  Level Seattle Center
Sun 07:52:57 PM 42.8831 -120.6164 334° Northwest 359 413 34,000  Level Seattle Center
Sun 07:53:58 PM 42.9739 -120.6744 335° Northwest 360 414 34,000  Level Seattle Center
Sun 07:54:59 PM 43.0633 -120.7347 334° Northwest 360 414 34,000  Level Seattle Center
Sun 07:56:00 PM 43.1517 -120.7903 335° Northwest 351 404 34,000  Level Seattle Center
Sun 07:57:00 PM 43.2403 -120.8489 334° Northwest 354 407 34,000  Level Seattle Center
Sun 07:58:01 PM 43.3275 -120.9056 335° Northwest 350 403 34,000  Level Seattle Center
Sun 07:59:02 PM 43.4147 -120.9650 334° Northwest 350 403 34,000  Level Seattle Center
Sun 08:00:03 PM 43.5019 -121.0228 334° Northwest 349 402 34,000  Level Seattle Center
Sun 08:01:04 PM 43.5989 -121.0867 334° Northwest 349 402 34,000  Level Seattle Center
Sun 08:02:04 PM 43.6750 -121.1358 335° Northwest 344 396 34,000  Level Seattle Center
Sun 08:03:05 PM 43.7647 -121.2003 333° Northwest 355 409 34,000  Level Seattle Center
Sun 08:04:06 PM 43.8636 -121.2672 334° Northwest 358 412 34,000  Level Seattle Center
Sun 08:05:07 PM 43.9497 -121.3242 335° Northwest 347 399 34,000  Level Seattle Center
Sun 08:06:07 PM 44.0353 -121.3836 333° Northwest 346 398 34,000  Level Seattle Center
Sun 08:07:08 PM 44.1200 -121.4428 333° Northwest 344 396 34,000  Level Seattle Center
Sun 08:08:09 PM 44.2064 -121.5000 335° Northwest 345 397 34,000  Level Seattle Center
Sun 08:09:10 PM 44.2922 -121.5594 334° Northwest 344 396 34,000  Level Seattle Center
Sun 08:10:11 PM 44.3789 -121.6186 334° Northwest 347 399 34,000  Level Seattle Center
Sun 08:11:11 PM 44.4656 -121.6781 334° Northwest 347 399 34,000  Level Seattle Center
Sun 08:12:12 PM 44.5525 -121.7389 334° Northwest 348 400 34,000  Level Seattle Center
Sun 08:13:13 PM 44.6389 -121.7989 334° Northwest 348 400 34,000  Level Seattle Center
Sun 08:14:14 PM 44.7247 -121.8586 334° Northwest 345 397 34,000  Level Seattle Center
Sun 08:15:14 PM 44.8189 -121.9244 334° Northwest 335 386 34,000  Level Seattle Center
Sun 08:16:15 PM 44.9008 -121.9858 332° Northwest 334 384 34,000  Level Seattle Center
Sun 08:17:16 PM 44.9853 -122.0450 334° Northwest 339 390 34,000  Level Seattle Center
Sun 08:18:16 PM 45.0672 -122.1022 334° Northwest 333 383 34,000  Level Seattle Center
Sun 08:19:17 PM 45.1486 -122.1617 333° Northwest 331 381 34,000  Level Seattle Center
Sun 08:20:18 PM 45.2314 -122.2192 334° Northwest 332 382 34,000  Level Seattle Center
Sun 08:21:19 PM 45.3114 -122.2778 333° Northwest 329 379 34,000  Level Seattle Center
Sun 08:22:19 PM 45.3936 -122.3364 333° Northwest 331 381 34,000  Level Seattle Center
Sun 08:23:20 PM 45.4747 -122.3944 333° Northwest 330 380 34,000  Level Seattle Center
Sun 08:24:21 PM 45.5583 -122.4547 333° Northwest 335 386 34,000  Level Seattle Center
Sun 08:25:21 PM 45.6431 -122.5156 333° Northwest 336 387 34,000  Level Seattle Center
Sun 08:26:22 PM 45.7231 -122.5733 333° Northwest 333 383 34,000  Level Seattle Center
Sun 08:27:23 PM 45.8342 -122.6128 346° North 347 399 34,000  Level Seattle Center
Sun 08:28:24 PM 45.9264 -122.6353 350° North 340 391 34,000 -197 Level Seattle Center
Sun 08:29:25 PM 46.0203 -122.6625 349° North 344 396 33,600 -1,388 Descending Seattle Center
Sun 08:30:25 PM 46.1089 -122.6842 350° North 327 376 31,200 -2,331 Descending Seattle Center
Sun 08:31:26 PM 46.2008 -122.6942 356° North 332 382 28,900 -2,115 Descending Seattle Center
Sun 08:32:27 PM 46.2847 -122.7053 355° North 324 373 26,900 -2,016 Descending Seattle Center
Sun 08:33:28 PM 46.3733 -122.7175 355° North 324 373 24,800 -2,132 Descending Seattle Center
Sun 08:34:28 PM 46.4664 -122.7319 354° North 336 387 22,600 -2,430 Descending Seattle Center
Sun 08:35:29 PM 46.5758 -122.7447 355° North 333 383 19,900 -2,311 Descending Seattle Center
Sun 08:36:30 PM 46.6617 -122.7569 354° North 317 365 17,900 -1,857 Descending Seattle Center
Sun 08:36:53 PM 46.6964 -122.7600 357° North 306 352 17,300 -1,770 Descending Seattle Center
Sun 08:37:31 PM 46.7450 -122.7658 355° North 303 349 16,100 -1,455 Descending Seattle Center
Sun 08:38:32 PM 46.8272 -122.7767 355° North 301 346 14,900 -1,289 Descending Seattle Center
Sun 08:39:32 PM 46.9103 -122.7875 355° North 302 348 13,500 -1,446 Descending Seattle Center
Sun 08:39:55 PM 46.9444 -122.7758 13° North 311 358 12,900 -1,180 Descending Seattle Center
Sun 08:40:33 PM 46.9722 -122.7125 57° Northeast 323 372 12,300 -982 Descending Seattle Center
Sun 08:40:50 PM 46.9861 -122.6692 65° Northeast 331 381 12,000 -1,279 Descending Seattle Center
Sun 08:41:34 PM 47.0100 -122.5975 64° Northeast 317 365 11,000 -1,672 Descending Seattle Center
Sun 08:41:51 PM 47.0267 -122.5564 59° Northeast 312 359 10,300 -1,377 Descending Seattle Center
Sun 08:42:35 PM 47.0514 -122.4917 61° Northeast 304 350 9,600 -1,475 Descending Seattle Center
Sun 08:42:52 PM 47.0703 -122.4483 57° Northeast 290 334 8,800 -1,900 Descending Seattle Center
Sun 08:43:35 PM 47.0908 -122.3942 61° Northeast 287 330 7,700 -2,066 Descending Seattle Center
Sun 08:43:53 PM 47.1133 -122.3564 49° Northeast 277 319 6,700 -2,066 Descending Seattle Center
Sun 08:44:36 PM 47.1614 -122.3161 30° Northeast 273 314 5,600 -1,377 Descending Seattle Center
Sun 08:44:54 PM 47.1803 -122.3133 North 255 293 5,300 -1,574 Descending Seattle Center
Sun 08:45:37 PM 47.2289 -122.3133 360° North 247 284 4,000 -1,279 Descending Seattle Center
Sun 08:45:55 PM 47.2475 -122.3156 355° North 237 273 4,000 -689 Level Seattle Center
Sun 08:46:38 PM 47.2903 -122.3128 North 226 260 3,300 -1,000 Descending Seattle Center
Sun 08:46:55 PM 47.3067 -122.3122 North 209 241 3,000 -900 Descending Seattle Center
Sun 08:47:38 PM 47.3353 -122.3128 359° North 165 190 2,400 -750 Descending Seattle Center
Sun 08:48:39 PM 47.3708 -122.3119 North 129 148 1,700 -759 Descending Seattle Center
Sun 08:48:57 PM 47.3844 -122.3122 359° North 118 136 1,400 -689 Descending Seattle Center
Sun 08:49:40 PM 47.4056 -122.3122 360° North 127 146 1,000 -689 Descending Seattle Center
Sun 08:49:58 PM 47.4200 -122.3122 360° North 130 150 700 -689 Descending Seattle Center
Sun 08:50:41 PM 47.4419 -122.3117 North 136 157 300 -558 Descending Seattle Center
Sun 08:52:00 PM 47.4499 -122.3118 359° North  Level Estimated

Login

Don't have an account? Register now (free) for customized features, flight alerts, and more!